Time;durP1;ratioP1;P1;durP2;ratioP2;P2;SDS_P1;SDS_P2;PMS_P1;PMS_P2;Temp;Humidity;BMP_temperature;BMP_pressure;BME280_temperature;BME280_humidity;BME280_pressure;Samples;Min_cycle;Max_cycle;Signal;HPM_P1;HPM_P2
2022/04/16 00:02:02;;;;;;;6.90;4.45;;;;;;;20.66;50.93;99084.36;1856175;76;25374;-84
2022/04/16 00:04:30;;;;;;;5.47;4.30;;;;;;;20.67;50.94;99088.73;1855835;76;28312;-88
2022/04/16 00:06:57;;;;;;;5.33;3.85;;;;;;;20.67;50.93;99087.95;1856054;77;25765;-84
2022/04/16 00:09:24;;;;;;;5.75;3.85;;;;;;;20.66;50.96;99087.72;1856165;76;25767;-83
2022/04/16 00:11:49;;;;;;;5.97;4.00;;;;;;;20.65;50.94;99084.15;1856173;76;25921;-84
2022/04/16 00:14:16;;;;;;;4.85;3.77;;;;;;;20.65;50.91;99082.76;1856297;76;25466;-86
2022/04/16 00:16:44;;;;;;;5.95;4.28;;;;;;;20.64;50.92;99077.55;1855806;76;27383;-88
2022/04/16 00:19:11;;;;;;;5.28;3.95;;;;;;;20.63;50.89;99082.31;1855774;76;25664;-84
2022/04/16 00:21:39;;;;;;;5.53;4.15;;;;;;;20.63;50.90;99082.31;1855891;77;25638;-86
2022/04/16 00:24:06;;;;;;;4.90;4.20;;;;;;;20.64;50.87;99082.52;1856115;76;26694;-88
2022/04/16 00:26:32;;;;;;;5.70;3.90;;;;;;;20.63;50.89;99083.70;1855903;77;25353;-84
2022/04/16 00:28:59;;;;;;;4.95;4.03;;;;;;;20.63;50.91;99081.50;1856345;76;28054;-86
2022/04/16 00:31:28;;;;;;;5.05;4.03;;;;;;;20.60;50.92;99080.84;1855900;76;25356;-83
2022/04/16 00:33:54;;;;;;;4.95;4.08;;;;;;;20.60;50.92;99084.45;1855769;76;25704;-86
2022/04/16 00:36:20;;;;;;;4.72;4.00;;;;;;;20.60;50.92;99087.81;1856189;76;26457;-86
2022/04/16 00:38:46;;;;;;;4.80;3.87;;;;;;;20.60;50.91;99090.59;1856155;77;25705;-86
2022/04/16 00:41:12;;;;;;;5.65;4.05;;;;;;;20.60;50.93;99098.37;1856092;77;27332;-87
2022/04/16 00:43:39;;;;;;;5.33;3.92;;;;;;;20.58;50.95;99095.14;1855676;76;25721;-86
2022/04/16 00:46:05;;;;;;;4.72;4.03;;;;;;;20.58;50.94;99093.75;1856251;77;25609;-88
2022/04/16 00:48:31;;;;;;;6.10;4.00;;;;;;;20.59;50.95;99099.55;1856210;76;25833;-87
2022/04/16 00:50:57;;;;;;;5.37;4.33;;;;;;;20.59;50.90;99098.16;1856194;76;25523;-87
2022/04/16 00:53:30;;;;;;;4.75;4.03;;;;;;;20.58;50.86;99097.92;1856036;77;27390;-86
2022/04/16 00:55:58;;;;;;;5.33;3.85;;;;;;;20.56;50.86;99098.30;1855740;77;25616;-89
2022/04/16 00:58:24;;;;;;;4.42;3.62;;;;;;;20.56;50.83;99100.30;1855768;77;25608;-87
2022/04/16 01:00:50;;;;;;;5.53;3.83;;;;;;;20.54;50.85;99105.42;1856236;76;25915;-88
2022/04/16 01:03:17;;;;;;;5.30;3.95;;;;;;;20.56;50.85;99105.86;1856207;76;25433;-89
2022/04/16 01:05:43;;;;;;;4.85;3.83;;;;;;;20.54;50.88;99104.84;1842666;77;27575;-86
2022/04/16 01:08:09;;;;;;;4.87;3.70;;;;;;;20.55;50.86;99104.23;1856284;76;25601;-85
2022/04/16 01:10:36;;;;;;;4.42;3.72;;;;;;;20.54;50.82;99104.84;1856125;76;25673;-84
2022/04/16 01:13:05;;;;;;;4.75;3.70;;;;;;;20.52;50.80;99111.36;1855986;76;25751;-84
2022/04/16 01:15:32;;;;;;;4.83;3.77;;;;;;;20.52;50.84;99114.14;1856398;77;25558;-84
2022/04/16 01:18:02;;;;;;;4.83;3.85;;;;;;;20.52;50.82;99112.75;1856198;76;27341;-83
2022/04/16 01:20:27;;;;;;;5.12;3.98;;;;;;;20.51;50.82;99113.94;1855716;76;25399;-86
2022/04/16 01:22:54;;;;;;;5.28;3.67;;;;;;;20.50;50.83;99112.33;1856209;76;25470;-83
2022/04/16 01:25:24;;;;;;;4.72;3.58;;;;;;;20.50;50.78;99119.87;1855869;77;25970;-85
2022/04/16 01:27:48;;;;;;;5.00;3.77;;;;;;;20.49;50.82;99119.05;1855701;76;25482;-88
2022/04/16 01:30:19;;;;;;;5.22;3.85;;;;;;;20.49;50.78;99126.63;1856135;77;28468;-86
2022/04/16 01:32:45;;;;;;;5.50;3.85;;;;;;;20.48;50.80;99125.80;1856272;77;25600;-85
2022/04/16 01:35:11;;;;;;;4.95;3.83;;;;;;;20.46;50.85;99129.53;1856332;76;25620;-85
2022/04/16 01:37:37;;;;;;;4.87;3.83;;;;;;;20.47;50.82;99134.53;1856249;76;25816;-85
2022/04/16 01:40:11;;;;;;;4.45;3.67;;;;;;;20.46;50.77;99141.28;1856311;76;25523;-85
2022/04/16 01:42:38;;;;;;;4.75;3.70;;;;;;;20.47;50.81;99137.31;1856219;76;27391;-84
2022/04/16 01:45:06;;;;;;;4.80;3.75;;;;;;;20.44;50.83;99134.69;1855722;76;25569;-85
2022/04/16 01:47:36;;;;;;;5.40;3.70;;;;;;;20.44;50.74;99145.82;1856106;76;25711;-84
2022/04/16 01:50:06;;;;;;;5.33;3.90;;;;;;;20.42;50.77;99147.58;1855923;76;25888;-86
2022/04/16 01:52:35;;;;;;;5.08;3.80;;;;;;;20.42;50.75;99152.33;1856537;76;25405;-84
2022/04/16 01:55:02;;;;;;;4.80;3.30;;;;;;;20.41;50.83;99154.30;1856398;76;28173;-85
2022/04/16 01:57:28;;;;;;;4.62;3.40;;;;;;;20.40;50.83;99155.48;1856235;77;25583;-84
2022/04/16 01:59:54;;;;;;;4.72;3.72;;;;;;;20.38;50.84;99152.86;1856462;77;25447;-88
2022/04/16 02:02:21;;;;;;;3.58;3.20;;;;;;;20.39;50.75;99158.06;1856348;77;26436;-86
2022/04/16 02:04:47;;;;;;;3.77;3.30;;;;;;;20.39;50.77;99162.81;1856238;77;25533;-87
2022/04/16 02:07:14;;;;;;;5.50;3.35;;;;;;;20.37;50.72;99156.80;1856341;77;28196;-87
2022/04/16 02:09:41;;;;;;;4.40;3.37;;;;;;;20.36;50.67;99166.33;1856140;77;25419;-87
2022/04/16 02:12:08;;;;;;;4.95;3.55;;;;;;;20.33;50.79;99167.06;1856271;76;25665;-87
2022/04/16 02:14:34;;;;;;;4.28;3.40;;;;;;;20.32;50.76;99166.25;1856243;77;25787;-87
2022/04/16 02:17:00;;;;;;;4.83;3.50;;;;;;;20.30;50.75;99168.00;1856314;77;25594;-89
2022/04/16 02:19:27;;;;;;;4.40;3.35;;;;;;;20.31;50.79;99177.17;1856319;77;27418;-89
2022/04/16 02:21:53;;;;;;;4.47;3.10;;;;;;;20.30;50.80;99174.17;1856156;76;25578;-89
2022/04/16 02:24:19;;;;;;;4.33;3.17;;;;;;;20.30;50.77;99178.35;1856296;77;25608;-89
2022/04/16 02:26:45;;;;;;;4.17;3.37;;;;;;;20.30;50.78;99179.14;1856268;76;25625;-83
2022/04/16 02:29:13;;;;;;;4.15;3.40;;;;;;;20.31;50.69;99184.13;1856341;76;25396;-84
2022/04/16 02:31:39;;;;;;;4.17;3.40;;;;;;;20.27;50.73;99188.22;1856204;76;27400;-84
2022/04/16 02:34:07;;;;;;;4.50;3.58;;;;;;;20.25;50.77;99189.19;1856196;76;25780;-83
2022/04/16 02:36:34;;;;;;;4.00;3.40;;;;;;;20.25;50.77;99189.19;1856228;76;25637;-86
2022/04/16 02:39:01;;;;;;;3.65;3.00;;;;;;;20.26;50.64;99193.58;1856182;76;25749;-83
2022/04/16 02:41:27;;;;;;;3.92;3.20;;;;;;;20.28;50.70;99202.95;1856275;77;25377;-85
2022/04/16 02:43:54;;;;;;;4.00;3.20;;;;;;;20.28;50.63;99201.55;1856175;76;28184;-87
2022/04/16 02:49:08;;;;;;;7.58;3.30;;;;;;;20.30;50.55;99202.01;1855877;77;25681;-88
2022/04/16 02:51:35;;;;;;;5.55;3.47;;;;;;;20.28;50.68;99204.34;1856308;76;26546;-86
2022/04/16 02:54:01;;;;;;;4.97;3.40;;;;;;;20.27;50.64;99205.52;1856308;76;25644;-83
2022/04/16 02:56:27;;;;;;;4.40;3.15;;;;;;;20.25;50.73;99208.67;1856321;76;27374;-83
2022/04/16 02:58:53;;;;;;;4.65;3.05;;;;;;;20.21;50.81;99209.77;1856133;77;25577;-86
2022/04/16 03:01:19;;;;;;;4.10;3.40;;;;;;;20.19;50.90;99217.09;1856302;76;25545;-84
2022/04/16 03:03:45;;;;;;;6.90;3.62;;;;;;;20.20;50.82;99224.25;1856326;76;25641;-85
2022/04/16 03:06:12;;;;;;;4.00;3.50;;;;;;;20.21;50.74;99218.93;1856057;76;25514;-84
2022/04/16 03:08:37;;;;;;;4.53;3.10;;;;;;;20.22;50.80;99230.27;1856171;76;27386;-81
2022/04/16 03:11:06;;;;;;;4.87;3.47;;;;;;;20.25;50.80;99230.94;1856235;77;25809;-82
2022/04/16 03:13:35;;;;;;;3.33;2.87;;;;;;;20.28;50.81;99236.34;1855878;76;25652;-84
2022/04/16 03:18:47;;;;;;;4.12;3.05;;;;;;;20.28;50.92;99246.90;1855928;77;25369;-83
2022/04/16 03:21:13;;;;;;;5.12;3.27;;;;;;;20.30;50.96;99252.09;1856300;76;28227;-84
2022/04/16 03:23:40;;;;;;;4.62;3.20;;;;;;;20.29;51.00;99246.30;1856105;76;25559;-88
2022/04/16 03:26:07;;;;;;;3.75;3.05;;;;;;;20.29;51.05;99258.24;1855825;76;25648;-88
2022/04/16 03:28:33;;;;;;;4.53;3.00;;;;;;;20.31;51.09;99252.31;1856281;76;26519;-87
2022/04/16 03:31:00;;;;;;;4.40;3.02;;;;;;;20.33;51.12;99265.28;1855892;77;25412;-86
2022/04/16 03:33:25;;;;;;;4.50;3.00;;;;;;;20.35;51.16;99269.09;1856134;77;27417;-86
2022/04/16 03:35:52;;;;;;;3.90;2.75;;;;;;;20.36;51.19;99264.56;1856190;77;25919;-87
2022/04/16 03:38:19;;;;;;;3.50;2.65;;;;;;;20.38;51.20;99272.55;1856283;76;25559;-87
2022/04/16 03:40:48;;;;;;;4.20;2.83;;;;;;;20.39;51.23;99276.92;1855784;77;26615;-87
2022/04/16 03:43:13;;;;;;;3.90;2.98;;;;;;;20.43;51.27;99276.41;1855815;76;25692;-86
2022/04/16 03:45:39;;;;;;;4.10;2.80;;;;;;;20.43;51.29;99284.19;1855970;76;28131;-87
2022/04/16 03:48:07;;;;;;;3.35;2.75;;;;;;;20.46;51.30;99289.59;1856217;76;25638;-88
2022/04/16 03:50:35;;;;;;;4.30;2.85;;;;;;;20.47;51.32;99280.67;1856216;76;25521;-85
2022/04/16 03:53:01;;;;;;;3.40;2.70;;;;;;;20.49;51.37;99280.52;1856162;76;25725;-82
2022/04/16 04:01:04;;;;;;;3.55;2.62;;;;;;;20.60;51.25;99272.96;1855730;77;25553;-82
2022/04/16 04:03:30;;;;;;;3.52;2.62;;;;;;;20.61;51.22;99278.16;1856152;76;25640;-82
2022/04/16 04:05:58;;;;;;;3.33;2.60;;;;;;;20.63;51.24;99293.11;1856243;77;25663;-82
2022/04/16 04:08:25;;;;;;;4.65;2.90;;;;;;;20.65;51.19;99290.78;1856117;76;25356;-84
2022/04/16 04:10:52;;;;;;;4.03;2.60;;;;;;;20.67;51.17;99296.80;1856217;76;27426;-83
2022/04/16 04:13:18;;;;;;;2.60;2.40;;;;;;;20.67;51.19;99295.41;1855998;76;25555;-84
2022/04/16 04:15:44;;;;;;;4.00;2.95;;;;;;;20.69;51.18;99300.81;1856208;77;25605;-85
2022/04/16 04:18:11;;;;;;;3.87;2.60;;;;;;;20.71;51.16;99297.66;1856090;76;25717;-82
2022/04/16 04:20:37;;;;;;;4.10;2.90;;;;;;;20.74;51.13;99294.72;1856263;76;25604;-88
2022/04/16 04:23:04;;;;;;;4.08;3.10;;;;;;;20.75;51.12;99299.92;1856048;76;27357;-82
2022/04/16 04:25:31;;;;;;;3.35;2.55;;;;;;;20.77;51.11;99303.73;1856165;76;25704;-82
2022/04/16 04:27:57;;;;;;;3.10;2.30;;;;;;;20.79;51.09;99304.19;1842841;77;25697;-82
2022/04/16 04:30:23;;;;;;;4.05;2.95;;;;;;;20.80;51.06;99303.82;1856137;76;25709;-82
2022/04/16 04:32:49;;;;;;;3.87;2.92;;;;;;;20.85;51.01;99308.29;1856226;76;25618;-82
2022/04/16 04:35:16;;;;;;;3.50;2.65;;;;;;;20.87;50.99;99312.88;1856127;76;26764;-88
2022/04/16 04:37:42;;;;;;;3.83;2.90;;;;;;;20.88;50.96;99316.48;1856137;76;25735;-84
2022/04/16 04:40:09;;;;;;;4.50;3.20;;;;;;;20.90;50.94;99316.94;1855819;76;25646;-83
2022/04/16 04:42:36;;;;;;;4.10;2.80;;;;;;;20.92;50.89;99318.78;1856201;77;25842;-83
2022/04/16 04:45:10;;;;;;;3.55;2.75;;;;;;;20.93;50.85;99319.02;1857715;76;25354;-84
2022/04/16 04:47:37;;;;;;;4.67;3.00;;;;;;;20.95;50.83;99319.44;1862926;76;27780;-82
2022/04/16 04:50:05;;;;;;;4.87;3.00;;;;;;;20.96;50.80;99331.40;1864197;76;25588;-88
2022/04/16 04:52:31;;;;;;;4.62;3.00;;;;;;;20.97;50.80;99327.42;1864220;76;25529;-87
2022/04/16 04:55:00;;;;;;;4.53;2.80;;;;;;;20.99;50.80;99330.08;1864269;77;25712;-87
2022/04/16 04:57:27;;;;;;;4.95;2.77;;;;;;;21.00;50.82;99334.47;1864357;76;25718;-88
2022/04/16 04:59:54;;;;;;;4.17;2.75;;;;;;;21.01;50.82;99338.86;1864436;76;28045;-87
2022/04/16 05:02:20;;;;;;;5.05;2.77;;;;;;;21.04;50.83;99345.70;1864090;77;25456;-87
2022/04/16 05:04:47;;;;;;;5.47;2.90;;;;;;;21.05;50.86;99338.94;1864296;76;25644;-85
2022/04/16 05:07:13;;;;;;;6.58;3.30;;;;;;;21.06;50.87;99346.93;1864139;76;25749;-88
2022/04/16 05:09:39;;;;;;;4.58;2.92;;;;;;;21.09;50.93;99348.17;1864330;76;25516;-89
2022/04/16 05:12:06;;;;;;;4.78;3.02;;;;;;;21.11;50.97;99350.59;1864308;76;28099;-89
2022/04/16 05:14:33;;;;;;;5.28;3.15;;;;;;;21.12;51.00;99350.22;1864107;76;25690;-83
2022/04/16 05:16:59;;;;;;;4.25;3.10;;;;;;;21.15;51.01;99355.05;1864299;76;25638;-82
2022/04/16 05:19:25;;;;;;;4.83;3.12;;;;;;;21.16;51.10;99358.05;1864190;76;25689;-85
2022/04/16 05:21:51;;;;;;;5.08;3.27;;;;;;;21.18;51.10;99357.11;1864321;76;25550;-82
2022/04/16 05:24:17;;;;;;;7.45;3.40;;;;;;;21.21;51.17;99365.30;1864274;76;27350;-82
2022/04/16 05:26:43;;;;;;;5.85;3.47;;;;;;;21.23;51.23;99369.94;1833042;77;25724;-82
2022/04/16 05:29:09;;;;;;;5.03;3.50;;;;;;;21.26;51.26;99372.56;1863863;76;25626;-85
2022/04/16 05:31:36;;;;;;;5.00;3.45;;;;;;;21.27;51.27;99370.80;1864460;76;25875;-84
2022/04/16 05:34:21;;;;;;;6.50;3.55;;;;;;;21.29;51.30;99371.83;1864185;76;25673;-84
2022/04/16 05:36:50;;;;;;;5.83;3.60;;;;;;;21.33;51.33;99382.48;1864200;77;27449;-83
2022/04/16 05:39:17;;;;;;;6.72;3.47;;;;;;;21.37;51.32;99379.73;1864450;76;25594;-84
2022/04/16 05:41:44;;;;;;;6.25;4.08;;;;;;;21.38;51.32;99383.55;1864134;76;25613;-83
2022/04/16 05:44:10;;;;;;;6.58;4.10;;;;;;;21.39;51.35;99383.76;1864352;76;25686;-89
2022/04/16 05:46:37;;;;;;;8.35;3.90;;;;;;;21.42;51.35;99383.02;1851388;76;25358;-83
2022/04/16 05:49:03;;;;;;;6.67;4.35;;;;;;;21.43;51.40;99386.05;1850575;76;27344;-83
2022/04/16 05:51:30;;;;;;;6.67;4.00;;;;;;;21.46;51.37;99391.45;1850534;77;25862;-81
2022/04/16 05:53:57;;;;;;;7.05;4.20;;;;;;;21.48;51.37;99393.88;1850662;76;25578;-83
2022/04/16 05:56:23;;;;;;;7.08;4.08;;;;;;;21.50;51.36;99395.11;1850499;77;25760;-83
2022/04/16 05:58:50;;;;;;;6.40;4.35;;;;;;;21.52;51.34;99401.71;1850523;77;25602;-88
2022/04/16 06:01:16;;;;;;;6.12;4.03;;;;;;;21.54;51.29;99403.55;1850594;76;27384;-84
2022/04/16 06:03:41;;;;;;;6.67;3.95;;;;;;;21.55;51.24;99401.79;1850452;76;25645;-83
2022/04/16 06:06:09;;;;;;;6.33;4.53;;;;;;;21.59;51.17;99412.20;1850723;77;25609;-83
2022/04/16 06:08:36;;;;;;;8.00;4.35;;;;;;;21.60;51.12;99414.63;1850511;76;25786;-83
2022/04/16 06:11:04;;;;;;;6.05;4.40;;;;;;;21.63;51.08;99412.48;1850557;76;25428;-83
2022/04/16 06:13:31;;;;;;;7.40;4.62;;;;;;;21.65;51.05;99419.88;1850241;76;27562;-88
2022/04/16 06:15:59;;;;;;;9.25;4.72;;;;;;;21.66;51.00;99425.70;1850461;77;25392;-87
2022/04/16 06:18:26;;;;;;;6.50;4.72;;;;;;;21.69;50.96;99421.34;1850767;77;25540;-86
2022/04/16 06:20:52;;;;;;;7.45;4.90;;;;;;;21.71;50.93;99424.58;1850595;77;25899;-88
2022/04/16 06:23:23;;;;;;;7.58;4.83;;;;;;;21.73;50.88;99420.03;1847109;76;25610;-87
2022/04/16 06:25:49;;;;;;;8.53;5.37;;;;;;;21.73;50.79;99425.00;1850235;76;27614;-88
2022/04/16 06:28:15;;;;;;;7.62;4.95;;;;;;;21.75;50.72;99428.81;1850506;77;25593;-88
2022/04/16 06:30:41;;;;;;;8.05;4.87;;;;;;;21.78;50.68;99430.89;1850545;77;25697;-87
2022/04/16 06:33:07;;;;;;;7.97;5.12;;;;;;;21.80;50.64;99437.73;1850556;76;25678;-87
2022/04/16 06:35:33;;;;;;;7.80;5.72;;;;;;;21.80;50.59;99432.16;1850525;76;25373;-90
2022/04/16 06:38:00;;;;;;;8.00;5.37;;;;;;;21.81;50.52;99435.15;1850631;77;27412;-84
2022/04/16 06:40:26;;;;;;;9.80;5.40;;;;;;;21.83;50.46;99433.97;1850493;76;25665;-83
2022/04/16 06:42:52;;;;;;;8.23;5.60;;;;;;;21.85;50.38;99442.20;1850609;76;25625;-84
2022/04/16 06:45:19;;;;;;;7.70;5.17;;;;;;;21.86;50.36;99441.02;1854121;77;25670;-82
2022/04/16 06:47:45;;;;;;;8.63;5.95;;;;;;;21.88;50.35;99440.03;1864494;76;25559;-82
2022/04/16 06:50:11;;;;;;;9.13;5.47;;;;;;;21.91;50.32;99445.48;1864335;77;27415;-82
2022/04/16 06:52:38;;;;;;;8.65;5.53;;;;;;;21.92;50.28;99453.48;1864408;77;25639;-83
2022/04/16 06:55:06;;;;;;;7.78;5.15;;;;;;;21.94;50.27;99450.31;1864459;76;25637;-83
2022/04/16 06:57:33;;;;;;;8.23;5.12;;;;;;;21.96;50.27;99456.31;1864314;76;25697;-87
2022/04/16 06:59:59;;;;;;;10.15;5.45;;;;;;;21.99;50.22;99453.39;1864471;77;25403;-87
2022/04/16 07:02:25;;;;;;;12.37;5.35;;;;;;;22.00;50.22;99457.20;1864369;77;27333;-83
2022/04/16 07:04:52;;;;;;;9.70;6.33;;;;;;;22.02;50.24;99457.62;1851116;76;25589;-87
2022/04/16 07:07:18;;;;;;;11.50;6.45;;;;;;;22.03;50.31;99463.44;1849379;77;25453;-89
2022/04/16 07:09:44;;;;;;;8.75;5.92;;;;;;;22.04;50.34;99467.02;1849416;77;25729;-90
2022/04/16 07:12:11;;;;;;;9.73;6.15;;;;;;;22.06;50.33;99469.67;1849403;77;25391;-87
2022/04/16 07:14:38;;;;;;;9.40;6.03;;;;;;;22.09;50.34;99463.92;1849043;77;27575;-85
2022/04/16 07:17:06;;;;;;;11.65;6.15;;;;;;;22.10;50.42;99474.51;1849143;77;26073;-84
2022/04/16 07:19:34;;;;;;;17.87;6.75;;;;;;;22.13;50.45;99472.37;1849354;77;25571;-86
2022/04/16 07:22:03;;;;;;;10.28;6.37;;;;;;;22.14;50.59;99471.97;1849352;77;25624;-82
2022/04/16 07:24:29;;;;;;;12.65;6.58;;;;;;;22.14;50.66;99471.97;1849429;77;25624;-83
2022/04/16 07:26:56;;;;;;;16.35;6.28;;;;;;;22.14;50.83;99471.97;1848880;77;27435;-85
2022/04/16 07:29:24;;;;;;;16.10;7.17;;;;;;;22.17;50.86;99477.41;1848795;77;25639;-86
2022/04/16 07:31:51;;;;;;;11.22;6.70;;;;;;;22.17;50.95;99480.98;1849283;77;25467;-84
2022/04/16 07:34:18;;;;;;;11.48;7.22;;;;;;;22.20;51.03;99482.25;1848918;77;25743;-84
2022/04/16 07:36:46;;;;;;;12.75;7.67;;;;;;;22.22;51.11;99485.45;1849488;77;25982;-85
2022/04/16 07:39:13;;;;;;;12.20;7.28;;;;;;;22.23;51.13;99487.09;1849275;77;27438;-85
2022/04/16 07:41:40;;;;;;;16.17;7.08;;;;;;;22.25;51.47;99490.91;1849221;77;25706;-84
2022/04/16 07:44:07;;;;;;;13.90;6.90;;;;;;;22.26;51.43;99492.51;1849191;77;25692;-84
2022/04/16 07:46:34;;;;;;;16.75;7.80;;;;;;;22.30;51.50;99490.57;1849345;77;26343;-83
2022/04/16 07:49:03;;;;;;;11.03;7.12;;;;;;;22.33;51.64;99493.23;1849672;77;25429;-83
2022/04/16 07:51:32;;;;;;;12.13;7.45;;;;;;;22.35;52.05;99495.04;1849476;77;27377;-83
2022/04/16 07:53:58;;;;;;;14.15;7.47;;;;;;;22.38;52.32;99499.88;1849255;77;25446;-84
2022/04/16 07:56:26;;;;;;;12.78;7.20;;;;;;;22.40;52.33;99498.31;1849678;77;25560;-84
2022/04/16 07:58:54;;;;;;;14.95;7.75;;;;;;;22.41;52.41;99491.56;1849538;77;26608;-84
2022/04/16 08:01:21;;;;;;;12.53;7.62;;;;;;;22.42;52.38;99493.17;1849300;77;25710;-85
2022/04/16 08:03:47;;;;;;;12.05;7.17;;;;;;;22.43;52.31;99498.17;1849274;77;28131;-86
2022/04/16 08:06:14;;;;;;;12.23;7.53;;;;;;;22.44;52.27;99495.02;1849448;77;25772;-86
2022/04/16 08:08:40;;;;;;;11.08;7.30;;;;;;;22.44;52.24;99497.80;1849662;77;25624;-87
2022/04/16 08:11:06;;;;;;;13.10;7.58;;;;;;;22.42;52.23;99495.96;1849491;77;26450;-85
2022/04/16 08:13:32;;;;;;;11.35;7.45;;;;;;;22.43;52.22;99491.19;1849642;77;25606;-87
2022/04/16 08:15:59;;;;;;;10.48;6.72;;;;;;;22.44;52.20;99494.19;1849628;77;27291;-87
2022/04/16 08:18:25;;;;;;;13.38;8.30;;;;;;;22.44;52.15;99496.98;1849510;77;25702;-86
2022/04/16 08:20:52;;;;;;;12.85;7.72;;;;;;;22.45;52.06;99502.77;1849305;77;25648;-86
2022/04/16 08:23:18;;;;;;;11.95;7.62;;;;;;;22.45;52.06;99511.16;1849693;77;26288;-86
2022/04/16 08:25:44;;;;;;;11.03;7.22;;;;;;;22.45;52.05;99513.95;1849703;77;25442;-86
2022/04/16 08:28:11;;;;;;;12.65;7.47;;;;;;;22.46;51.97;99514.77;1849544;77;27409;-86
2022/04/16 08:30:37;;;;;;;13.40;8.03;;;;;;;22.44;51.91;99510.37;1849674;77;25640;-87
2022/04/16 08:33:03;;;;;;;13.30;8.30;;;;;;;22.44;51.73;99515.14;1849526;77;25399;-86
2022/04/16 08:35:30;;;;;;;13.28;8.15;;;;;;;22.45;51.72;99513.95;1849640;77;25681;-86
2022/04/16 08:37:56;;;;;;;12.73;7.65;;;;;;;22.44;51.70;99508.16;1849561;77;25453;-86
2022/04/16 08:40:22;;;;;;;13.03;7.75;;;;;;;22.43;51.70;99511.53;1849743;77;27969;-85
2022/04/16 08:42:49;;;;;;;12.23;8.05;;;;;;;22.44;51.75;99520.72;1849403;77;25763;-85
2022/04/16 08:45:16;;;;;;;16.65;8.60;;;;;;;22.44;51.80;99523.52;1849525;77;25406;-85
2022/04/16 08:47:44;;;;;;;14.98;8.65;;;;;;;22.44;51.81;99528.52;1851419;77;25829;-89
2022/04/16 08:50:13;;;;;;;15.10;8.35;;;;;;;22.44;51.84;99531.31;1851638;77;25383;-86
2022/04/16 08:52:41;;;;;;;13.85;7.87;;;;;;;22.42;52.27;99535.64;1851915;77;27422;-85
2022/04/16 08:55:11;;;;;;;13.62;7.90;;;;;;;22.43;52.24;99533.08;1851777;77;25603;-85
2022/04/16 08:57:39;;;;;;;14.78;8.25;;;;;;;22.43;52.28;99542.24;1852082;77;25578;-86
2022/04/16 09:00:08;;;;;;;15.88;8.75;;;;;;;22.44;52.39;99543.87;1851518;77;25907;-86
2022/04/16 09:02:35;;;;;;;13.88;8.30;;;;;;;22.46;52.45;99546.88;1852158;77;25592;-86
2022/04/16 09:05:09;;;;;;;15.43;9.23;;;;;;;22.46;52.57;99548.27;1851976;77;28089;-86
2022/04/16 09:07:52;;;;;;;19.00;9.25;;;;;;;22.45;52.82;99546.06;1851841;77;25820;-85
2022/04/16 09:10:20;;;;;;;14.18;8.70;;;;;;;22.44;52.96;99549.47;1852006;77;25561;-85
2022/04/16 09:12:53;;;;;;;14.55;8.78;;;;;;;22.44;52.89;99547.25;1851862;77;25620;-85
2022/04/16 09:15:21;;;;;;;14.07;8.78;;;;;;;22.44;52.77;99554.23;1851949;77;25623;-86
2022/04/16 09:18:06;;;;;;;14.90;8.88;;;;;;;22.46;52.69;99560.27;1852019;77;27467;-85
2022/04/16 09:20:41;;;;;;;16.62;9.53;;;;;;;22.46;52.70;99566.42;1851798;77;25458;-84
2022/04/16 09:23:22;;;;;;;15.03;9.58;;;;;;;22.44;52.61;99575.17;1852040;77;25521;-85
2022/04/16 09:25:49;;;;;;;16.02;9.38;;;;;;;22.43;52.58;99571.56;1851866;77;26671;-86
2022/04/16 09:28:19;;;;;;;14.23;9.15;;;;;;;22.43;52.51;99579.16;1851990;77;25605;-85
2022/04/16 09:30:55;;;;;;;16.15;9.10;;;;;;;22.43;52.43;99577.16;1848596;77;27357;-87
2022/04/16 09:33:22;;;;;;;14.35;8.53;;;;;;;22.42;52.36;99581.71;1851584;77;26701;-86
2022/04/16 09:35:55;;;;;;;14.18;8.45;;;;;;;22.42;52.26;99585.91;1852038;77;25403;-87
2022/04/16 09:38:24;;;;;;;14.50;8.58;;;;;;;22.42;52.21;99592.30;1852224;77;25705;-86
2022/04/16 09:40:50;;;;;;;15.63;8.40;;;;;;;22.41;52.16;99585.12;1851259;77;25659;-86
2022/04/16 09:43:16;;;;;;;13.55;8.38;;;;;;;22.41;52.12;99589.30;1852087;77;27334;-86
2022/04/16 09:45:43;;;;;;;13.25;8.28;;;;;;;22.41;52.09;99594.89;1851697;77;25410;-87
2022/04/16 09:48:13;;;;;;;12.70;8.15;;;;;;;22.42;52.07;99598.47;1849745;77;25453;-86
2022/04/16 09:50:44;;;;;;;16.12;8.28;;;;;;;22.43;52.02;99600.10;1849675;77;26291;-85
2022/04/16 09:53:11;;;;;;;14.10;8.28;;;;;;;22.42;52.00;99607.66;1849470;77;25549;-87
2022/04/16 09:55:40;;;;;;;12.50;7.83;;;;;;;22.43;51.95;99612.67;1849510;77;27437;-85
2022/04/16 09:58:07;;;;;;;12.07;7.67;;;;;;;22.43;51.94;99614.06;1849145;77;25868;-86
2022/04/16 10:00:37;;;;;;;13.80;7.95;;;;;;;22.42;51.92;99618.83;1849480;77;25583;-85
2022/04/16 10:03:08;;;;;;;12.35;8.15;;;;;;;22.43;51.88;99621.83;1849471;77;25701;-85
2022/04/16 10:05:35;;;;;;;14.90;7.58;;;;;;;22.43;51.86;99620.44;1849619;77;25595;-85
2022/04/16 10:08:01;;;;;;;14.50;7.97;;;;;;;22.42;51.85;99631.40;1849560;77;27296;-85
2022/04/16 10:10:36;;;;;;;14.38;7.60;;;;;;;22.43;51.86;99630.82;1849481;77;25896;-85
2022/04/16 10:13:04;;;;;;;13.13;8.03;;;;;;;22.41;51.90;99635.95;1848674;77;25616;-86
2022/04/16 10:15:57;;;;;;;12.65;7.80;;;;;;;22.40;51.94;99634.35;1848674;77;25594;-85
2022/04/16 10:18:24;;;;;;;14.47;8.13;;;;;;;22.39;51.92;99634.93;1849733;77;26343;-86
2022/04/16 10:21:00;;;;;;;15.05;8.13;;;;;;;22.41;51.88;99638.75;1849662;77;27355;-86
2022/04/16 10:23:34;;;;;;;12.35;7.87;;;;;;;22.41;51.87;99635.95;1849519;77;25767;-85
2022/04/16 10:26:15;;;;;;;11.70;8.03;;;;;;;22.42;51.87;99640.36;1846424;77;25668;-87
2022/04/16 10:28:55;;;;;;;12.75;8.25;;;;;;;22.42;51.89;99648.16;1849595;77;26530;-86
2022/04/16 10:31:28;;;;;;;13.05;7.72;;;;;;;22.43;51.89;99643.39;1849783;77;30308;-85
2022/04/16 10:34:08;;;;;;;13.70;8.33;;;;;;;22.44;51.88;99643.59;1848859;77;27413;-86
2022/04/16 10:36:45;;;;;;;11.60;7.60;;;;;;;22.42;51.94;99651.52;1849706;77;25402;-85
2022/04/16 10:39:27;;;;;;;12.90;8.25;;;;;;;22.43;51.98;99653.16;1841459;77;25588;-85
2022/04/16 10:42:00;;;;;;;12.73;8.08;;;;;;;22.40;52.04;99650.50;1849282;77;26532;-85
2022/04/16 10:44:29;;;;;;;13.65;8.00;;;;;;;22.41;52.14;99649.34;1849669;77;25624;-85
2022/04/16 10:46:58;;;;;;;13.38;7.30;;;;;;;22.41;52.21;99649.34;1850365;77;27361;-86
2022/04/16 10:49:27;;;;;;;12.25;7.75;;;;;;;22.41;52.32;99652.13;1851564;77;25655;-87
2022/04/16 10:51:59;;;;;;;16.85;9.10;;;;;;;22.42;52.37;99652.34;1852146;77;25719;-87
2022/04/16 10:54:34;;;;;;;14.40;8.43;;;;;;;22.43;52.46;99653.16;1850672;77;25620;-86
2022/04/16 10:57:02;;;;;;;12.10;8.43;;;;;;;22.42;52.53;99655.14;1851785;77;25579;-87
2022/04/16 10:59:43;;;;;;;13.78;7.87;;;;;;;22.44;52.61;99656.16;1852093;77;27397;-86
2022/04/16 11:02:21;;;;;;;11.80;8.00;;;;;;;22.46;52.66;99647.41;1851889;77;25895;-86
2022/04/16 11:05:02;;;;;;;15.08;8.28;;;;;;;22.49;52.76;99656.45;1851772;77;25577;-86
2022/04/16 11:07:30;;;;;;;;;;;;;;;22.50;52.79;99645.48;1853502;77;25745;-86
2022/04/16 11:09:57;;;;;;;13.83;8.08;;;;;;;22.50;52.99;99649.67;1852158;77;25625;-87
2022/04/16 11:12:25;;;;;;;13.00;7.47;;;;;;;22.50;52.99;99638.50;1851914;77;28226;-86
2022/04/16 11:14:53;;;;;;;14.53;7.85;;;;;;;22.53;53.00;99640.55;1851957;77;25377;-86
2022/04/16 11:17:19;;;;;;;12.33;8.28;;;;;;;22.54;53.06;99639.39;1851952;77;25641;-86
2022/04/16 11:19:51;;;;;;;11.90;8.25;;;;;;;22.54;53.06;99639.39;1849213;77;26412;-87
2022/04/16 11:22:16;;;;;;;15.55;8.15;;;;;;;22.54;53.16;99648.56;1851037;77;25523;-86
2022/04/16 11:24:44;;;;;;;10.90;7.67;;;;;;;22.55;53.14;99646.01;1852082;77;28282;-86
2022/04/16 11:35:25;;;;;;;11.28;7.55;;;;;;;22.60;53.29;99648.30;1851673;77;25706;-87
2022/04/16 11:37:55;;;;;;;12.43;7.50;;;;;;;22.61;53.34;99648.50;1852089;77;27356;-86
2022/04/16 11:40:22;;;;;;;12.30;7.75;;;;;;;22.61;53.35;99642.34;1852032;77;25743;-87
2022/04/16 11:42:49;;;;;;;11.05;7.28;;;;;;;22.61;53.38;99650.72;1852041;77;25631;-87
2022/04/16 11:45:16;;;;;;;11.53;7.12;;;;;;;22.62;53.39;99652.94;1852067;77;26639;-87
2022/04/16 11:47:43;;;;;;;12.30;7.50;;;;;;;22.63;53.38;99650.34;1850340;77;25576;-87
2022/04/16 11:50:13;;;;;;;12.03;7.40;;;;;;;22.62;53.38;99646.73;1849551;77;27443;-87
2022/04/16 11:52:57;;;;;;;12.03;7.33;;;;;;;22.63;53.41;99647.55;1849309;77;25712;-86